sensor_id;sensor_type;location;lat;lon;timestamp;pressure;altitude;pressure_sealevel;temperature;humidity
26489;BME280;14169;43.684;10.484;2022-11-27T00:00:38;102687.81;;;10.66;100.00
26489;BME280;14169;43.684;10.484;2022-11-27T00:03:04;102686.06;;;10.62;100.00
26489;BME280;14169;43.684;10.484;2022-11-27T00:05:29;102693.03;;;10.57;100.00
26489;BME280;14169;43.684;10.484;2022-11-27T00:07:55;102699.09;;;10.56;100.00
26489;BME280;14169;43.684;10.484;2022-11-27T00:10:20;102699.97;;;10.58;100.00
26489;BME280;14169;43.684;10.484;2022-11-27T00:12:45;102698.25;;;10.57;100.00
26489;BME280;14169;43.684;10.484;2022-11-27T00:15:11;102705.16;;;10.50;100.00
26489;BME280;14169;43.684;10.484;2022-11-27T00:17:36;102711.25;;;10.43;100.00
26489;BME280;14169;43.684;10.484;2022-11-27T00:20:03;102708.66;;;10.43;100.00
26489;BME280;14169;43.684;10.484;2022-11-27T00:22:28;102716.47;;;10.43;100.00
26489;BME280;14169;43.684;10.484;2022-11-27T00:24:54;102709.50;;;10.42;100.00
26489;BME280;14169;43.684;10.484;2022-11-27T00:27:19;102709.53;;;10.45;100.00
26489;BME280;14169;43.684;10.484;2022-11-27T00:29:44;102700.81;;;10.46;100.00
26489;BME280;14169;43.684;10.484;2022-11-27T00:32:10;102706.91;;;10.53;100.00
26489;BME280;14169;43.684;10.484;2022-11-27T00:34:36;102706.91;;;10.51;100.00
26489;BME280;14169;43.684;10.484;2022-11-27T00:37:01;102696.47;;;10.53;100.00
26489;BME280;14169;43.684;10.484;2022-11-27T00:39:27;102696.50;;;10.56;100.00
26489;BME280;14169;43.684;10.484;2022-11-27T00:41:53;102704.34;;;10.63;100.00
26489;BME280;14169;43.684;10.484;2022-11-27T00:44:18;102708.69;;;10.63;100.00
26489;BME280;14169;43.684;10.484;2022-11-27T00:46:43;102699.13;;;10.60;100.00
26489;BME280;14169;43.684;10.484;2022-11-27T00:49:11;102694.78;;;10.59;100.00
26489;BME280;14169;43.684;10.484;2022-11-27T00:51:37;102690.38;;;10.54;100.00
26489;BME280;14169;43.684;10.484;2022-11-27T00:54:03;102695.63;;;10.48;100.00
26489;BME280;14169;43.684;10.484;2022-11-27T00:56:31;102707.78;;;10.43;100.00
26489;BME280;14169;43.684;10.484;2022-11-27T00:58:57;102705.16;;;10.38;100.00
26489;BME280;14169;43.684;10.484;2022-11-27T01:01:31;102716.47;;;10.31;100.00
26489;BME280;14169;43.684;10.484;2022-11-27T01:03:58;102717.31;;;10.27;100.00
26489;BME280;14169;43.684;10.484;2022-11-27T01:06:25;102718.19;;;10.23;100.00
26489;BME280;14169;43.684;10.484;2022-11-27T01:08:51;102718.19;;;10.22;100.00
26489;BME280;14169;43.684;10.484;2022-11-27T01:11:22;102720.78;;;10.20;100.00
26489;BME280;14169;43.684;10.484;2022-11-27T01:13:50;102724.22;;;10.16;100.00
26489;BME280;14169;43.684;10.484;2022-11-27T01:16:18;102717.31;;;10.15;100.00
26489;BME280;14169;43.684;10.484;2022-11-27T01:18:45;102725.13;;;10.17;100.00
26489;BME280;14169;43.684;10.484;2022-11-27T01:21:12;102721.66;;;10.21;100.00
26489;BME280;14169;43.684;10.484;2022-11-27T01:23:37;102732.06;;;10.27;100.00
26489;BME280;14169;43.684;10.484;2022-11-27T01:26:05;102734.69;;;10.27;100.00
26489;BME280;14169;43.684;10.484;2022-11-27T01:28:32;102734.69;;;10.24;100.00
26489;BME280;14169;43.684;10.484;2022-11-27T01:30:58;102729.44;;;10.16;100.00
26489;BME280;14169;43.684;10.484;2022-11-27T01:33:24;102729.44;;;10.05;100.00
26489;BME280;14169;43.684;10.484;2022-11-27T01:35:56;102724.19;;;9.89;100.00
26489;BME280;14169;43.684;10.484;2022-11-27T01:38:23;102738.91;;;9.81;100.00
26489;BME280;14169;43.684;10.484;2022-11-27T01:40:56;102731.97;;;9.75;100.00
26489;BME280;14169;43.684;10.484;2022-11-27T01:43:42;102736.25;;;9.70;100.00
26489;BME280;14169;43.684;10.484;2022-11-27T01:46:15;102735.41;;;9.65;100.00
26489;BME280;14169;43.684;10.484;2022-11-27T01:48:46;102733.63;;;9.63;100.00
26489;BME280;14169;43.684;10.484;2022-11-27T01:51:11;102728.44;;;9.60;100.00
26489;BME280;14169;43.684;10.484;2022-11-27T01:53:37;102729.25;;;9.51;100.00
26489;BME280;14169;43.684;10.484;2022-11-27T01:56:06;102732.72;;;9.46;100.00
26489;BME280;14169;43.684;10.484;2022-11-27T01:58:33;102734.41;;;9.39;100.00
26489;BME280;14169;43.684;10.484;2022-11-27T02:00:59;102736.97;;;9.36;100.00
26489;BME280;14169;43.684;10.484;2022-11-27T02:03:25;102733.53;;;9.36;100.00
26489;BME280;14169;43.684;10.484;2022-11-27T02:05:50;102734.38;;;9.36;100.00
26489;BME280;14169;43.684;10.484;2022-11-27T02:08:16;102733.50;;;9.31;100.00
26489;BME280;14169;43.684;10.484;2022-11-27T02:10:49;102745.63;;;9.28;100.00
26489;BME280;14169;43.684;10.484;2022-11-27T02:13:22;102751.66;;;9.25;100.00
26489;BME280;14169;43.684;10.484;2022-11-27T02:18:47;102743.81;;;9.17;100.00
26489;BME280;14169;43.684;10.484;2022-11-27T02:29:32;102740.31;;;9.12;100.00
26489;BME280;14169;43.684;10.484;2022-11-27T02:32:15;102734.28;;;9.15;100.00
26489;BME280;14169;43.684;10.484;2022-11-27T02:34:50;102739.47;;;9.15;100.00
26489;BME280;14169;43.684;10.484;2022-11-27T02:39:59;102742.78;;;8.97;100.00
26489;BME280;14169;43.684;10.484;2022-11-27T02:42:29;102743.59;;;8.90;100.00
26489;BME280;14169;43.684;10.484;2022-11-27T02:45:01;102737.50;;;8.88;100.00
26489;BME280;14169;43.684;10.484;2022-11-27T02:47:28;102739.28;;;8.92;100.00
26489;BME280;14169;43.684;10.484;2022-11-27T02:49:55;102742.78;;;8.99;100.00
26489;BME280;14169;43.684;10.484;2022-11-27T02:52:22;102737.59;;;8.96;100.00
26489;BME280;14169;43.684;10.484;2022-11-27T02:54:51;102739.31;;;8.95;100.00
26489;BME280;14169;43.684;10.484;2022-11-27T02:57:19;102732.31;;;8.88;100.00
26489;BME280;14169;43.684;10.484;2022-11-27T02:59:49;102735.75;;;8.83;100.00
26489;BME280;14169;43.684;10.484;2022-11-27T03:02:18;102729.66;;;8.78;100.00
26489;BME280;14169;43.684;10.484;2022-11-27T03:04:51;102724.47;;;8.78;100.00
26489;BME280;14169;43.684;10.484;2022-11-27T03:07:34;102731.38;;;8.76;100.00
26489;BME280;14169;43.684;10.484;2022-11-27T03:10:07;102722.72;;;8.75;100.00
26489;BME280;14169;43.684;10.484;2022-11-27T03:12:34;102714.91;;;8.77;100.00
26489;BME280;14169;43.684;10.484;2022-11-27T03:14:59;102716.72;;;8.84;100.00
26489;BME280;14169;43.684;10.484;2022-11-27T03:17:50;102716.81;;;8.96;100.00
26489;BME280;14169;43.684;10.484;2022-11-27T03:20:22;102713.41;;;9.03;100.00
26489;BME280;14169;43.684;10.484;2022-11-27T03:22:54;102711.75;;;9.14;100.00
26489;BME280;14169;43.684;10.484;2022-11-27T03:25:20;102703.09;;;9.24;100.00
26489;BME280;14169;43.684;10.484;2022-11-27T03:28:00;102702.31;;;9.37;100.00
26489;BME280;14169;43.684;10.484;2022-11-27T03:30:26;102697.16;;;9.49;100.00
26489;BME280;14169;43.684;10.484;2022-11-27T03:32:52;102703.25;;;9.60;100.00
26489;BME280;14169;43.684;10.484;2022-11-27T03:35:21;102686.81;;;9.66;100.00
26489;BME280;14169;43.684;10.484;2022-11-27T03:37:48;102679.88;;;9.66;100.00
26489;BME280;14169;43.684;10.484;2022-11-27T03:40:15;102670.34;;;9.73;100.00
26489;BME280;14169;43.684;10.484;2022-11-27T03:43:44;102666.00;;;9.75;100.00
26489;BME280;14169;43.684;10.484;2022-11-27T03:45:51;102657.38;;;9.76;100.00
26489;BME280;14169;43.684;10.484;2022-11-27T03:48:30;102658.25;;;9.85;100.00
26489;BME280;14169;43.684;10.484;2022-11-27T03:53:53;102657.41;;;10.10;100.00
26489;BME280;14169;43.684;10.484;2022-11-27T03:56:35;102662.59;;;10.00;100.00
26489;BME280;14169;43.684;10.484;2022-11-27T04:01:32;102664.28;;;9.68;100.00
26489;BME280;14169;43.684;10.484;2022-11-27T04:03:57;102675.53;;;9.58;100.00
26489;BME280;14169;43.684;10.484;2022-11-27T04:06:23;102675.44;;;9.44;100.00
26489;BME280;14169;43.684;10.484;2022-11-27T04:08:48;102684.94;;;9.30;100.00
26489;BME280;14169;43.684;10.484;2022-11-27T04:11:14;102677.97;;;9.23;100.00
26489;BME280;14169;43.684;10.484;2022-11-27T04:13:40;102669.28;;;9.22;100.00
26489;BME280;14169;43.684;10.484;2022-11-27T04:16:05;102659.81;;;9.29;100.00
26489;BME280;14169;43.684;10.484;2022-11-27T04:18:31;102658.91;;;9.29;100.00
26489;BME280;14169;43.684;10.484;2022-11-27T04:20:57;102660.66;;;9.28;100.00
26489;BME280;14169;43.684;10.484;2022-11-27T04:23:22;102669.31;;;9.29;100.00
26489;BME280;14169;43.684;10.484;2022-11-27T04:25:48;102671.94;;;9.27;100.00
26489;BME280;14169;43.684;10.484;2022-11-27T04:28:13;102677.97;;;9.26;100.00
26489;BME280;14169;43.684;10.484;2022-11-27T04:30:39;102681.34;;;9.08;100.00
26489;BME280;14169;43.684;10.484;2022-11-27T04:33:04;102689.88;;;8.91;100.00
26489;BME280;14169;43.684;10.484;2022-11-27T04:35:30;102699.31;;;8.77;100.00
26489;BME280;14169;43.684;10.484;2022-11-27T04:37:56;102696.63;;;8.62;100.00
26489;BME280;14169;43.684;10.484;2022-11-27T04:40:22;102693.97;;;8.54;100.00
26489;BME280;14169;43.684;10.484;2022-11-27T04:42:48;102691.28;;;8.47;100.00
26489;BME280;14169;43.684;10.484;2022-11-27T04:45:13;102702.50;;;8.38;100.00
26489;BME280;14169;43.684;10.484;2022-11-27T04:47:39;102710.19;;;8.26;100.00
26489;BME280;14169;43.684;10.484;2022-11-27T04:50:05;102704.94;;;8.21;100.00
26489;BME280;14169;43.684;10.484;2022-11-27T04:52:30;102709.13;;;8.10;100.00
26489;BME280;14169;43.684;10.484;2022-11-27T04:54:56;102707.31;;;8.00;100.00
26489;BME280;14169;43.684;10.484;2022-11-27T04:57:21;102708.91;;;7.86;100.00
26489;BME280;14169;43.684;10.484;2022-11-27T04:59:46;102710.63;;;7.84;100.00
26489;BME280;14169;43.684;10.484;2022-11-27T05:02:12;102705.31;;;7.77;100.00
26489;BME280;14169;43.684;10.484;2022-11-27T05:04:37;102704.41;;;7.70;100.00
26489;BME280;14169;43.684;10.484;2022-11-27T05:07:02;102706.06;;;7.65;100.00
26489;BME280;14169;43.684;10.484;2022-11-27T05:09:28;102707.81;;;7.66;100.00
26489;BME280;14169;43.684;10.484;2022-11-27T05:11:53;102712.97;;;7.65;100.00
26489;BME280;14169;43.684;10.484;2022-11-27T05:14:21;102716.31;;;7.54;100.00
26489;BME280;14169;43.684;10.484;2022-11-27T05:16:51;102714.59;;;7.53;100.00
26489;BME280;14169;43.684;10.484;2022-11-27T05:19:19;102720.59;;;7.52;100.00
26489;BME280;14169;43.684;10.484;2022-11-27T05:21:45;102726.66;;;7.50;100.00
26489;BME280;14169;43.684;10.484;2022-11-27T05:24:12;102717.09;;;7.49;100.00
26489;BME280;14169;43.684;10.484;2022-11-27T05:26:38;102718.00;;;7.51;100.00
26489;BME280;14169;43.684;10.484;2022-11-27T05:29:05;102716.34;;;7.58;100.00
26489;BME280;14169;43.684;10.484;2022-11-27T05:31:31;102716.28;;;7.53;100.00
26489;BME280;14169;43.684;10.484;2022-11-27T05:33:57;102710.94;;;7.41;100.00
26489;BME280;14169;43.684;10.484;2022-11-27T05:36:23;102718.59;;;7.30;100.00
26489;BME280;14169;43.684;10.484;2022-11-27T05:38:48;102717.66;;;7.25;100.00
26489;BME280;14169;43.684;10.484;2022-11-27T05:41:14;102714.16;;;7.22;100.00
26489;BME280;14169;43.684;10.484;2022-11-27T05:43:39;102722.84;;;7.24;100.00
26489;BME280;14169;43.684;10.484;2022-11-27T05:46:07;102714.28;;;7.32;100.00
26489;BME280;14169;43.684;10.484;2022-11-27T05:48:34;102719.53;;;7.34;100.00
26489;BME280;14169;43.684;10.484;2022-11-27T05:50:59;102720.38;;;7.34;100.00
26489;BME280;14169;43.684;10.484;2022-11-27T05:53:25;102716.94;;;7.35;100.00
26489;BME280;14169;43.684;10.484;2022-11-27T05:55:50;102724.06;;;7.50;100.00
26489;BME280;14169;43.684;10.484;2022-11-27T05:58:15;102720.75;;;7.65;100.00
26489;BME280;14169;43.684;10.484;2022-11-27T06:00:41;102726.16;;;7.81;100.00
26489;BME280;14169;43.684;10.484;2022-11-27T06:03:06;102726.28;;;7.92;100.00
26489;BME280;14169;43.684;10.484;2022-11-27T06:05:31;102730.63;;;7.96;100.00
26489;BME280;14169;43.684;10.484;2022-11-27T06:07:57;102725.53;;;8.03;100.00
26489;BME280;14169;43.684;10.484;2022-11-27T06:10:22;102725.59;;;8.09;100.00
26489;BME280;14169;43.684;10.484;2022-11-27T06:12:48;102723.94;;;8.16;100.00
26489;BME280;14169;43.684;10.484;2022-11-27T06:15:13;102724.88;;;8.25;100.00
26489;BME280;14169;43.684;10.484;2022-11-27T06:17:38;102720.69;;;8.41;100.00
26489;BME280;14169;43.684;10.484;2022-11-27T06:20:04;102714.72;;;8.53;100.00
26489;BME280;14169;43.684;10.484;2022-11-27T06:22:30;102708.69;;;8.58;100.00
26489;BME280;14169;43.684;10.484;2022-11-27T06:24:56;102712.19;;;8.59;100.00
26489;BME280;14169;43.684;10.484;2022-11-27T06:27:21;102709.59;;;8.59;100.00
26489;BME280;14169;43.684;10.484;2022-11-27T06:29:46;102714.75;;;8.56;100.00
26489;BME280;14169;43.684;10.484;2022-11-27T06:32:12;102719.06;;;8.52;100.00
26489;BME280;14169;43.684;10.484;2022-11-27T06:34:37;102713.88;;;8.52;100.00
26489;BME280;14169;43.684;10.484;2022-11-27T06:37:03;102716.47;;;8.52;100.00
26489;BME280;14169;43.684;10.484;2022-11-27T06:39:28;102727.53;;;8.30;100.00
26489;BME280;14169;43.684;10.484;2022-11-27T06:41:54;102730.72;;;8.03;100.00
26489;BME280;14169;43.684;10.484;2022-11-27T06:44:19;102742.69;;;7.92;100.00
26489;BME280;14169;43.684;10.484;2022-11-27T06:46:45;102746.09;;;7.87;100.00
26489;BME280;14169;43.684;10.484;2022-11-27T06:49:10;102754.69;;;7.83;100.00
26489;BME280;14169;43.684;10.484;2022-11-27T06:51:36;102752.97;;;7.83;100.00
26489;BME280;14169;43.684;10.484;2022-11-27T06:54:04;102761.66;;;7.87;100.00
26489;BME280;14169;43.684;10.484;2022-11-27T06:56:30;102762.56;;;7.89;100.00
26489;BME280;14169;43.684;10.484;2022-11-27T06:58:58;102760.91;;;7.98;100.00
26489;BME280;14169;43.684;10.484;2022-11-27T07:01:25;102771.41;;;8.06;100.00
26489;BME280;14169;43.684;10.484;2022-11-27T07:03:50;102768.63;;;7.91;100.00
26489;BME280;14169;43.684;10.484;2022-11-27T07:06:25;102776.31;;;7.80;100.00
26489;BME280;14169;43.684;10.484;2022-11-27T07:08:50;102775.66;;;8.01;100.00
26489;BME280;14169;43.684;10.484;2022-11-27T07:11:19;102782.78;;;8.18;100.00
26489;BME280;14169;43.684;10.484;2022-11-27T07:13:46;102782.06;;;8.31;100.00
26489;BME280;14169;43.684;10.484;2022-11-27T07:16:12;102786.50;;;8.43;100.00
26489;BME280;14169;43.684;10.484;2022-11-27T07:18:40;102785.75;;;8.55;100.00
26489;BME280;14169;43.684;10.484;2022-11-27T07:21:05;102780.66;;;8.67;100.00
26489;BME280;14169;43.684;10.484;2022-11-27T07:23:31;102781.66;;;8.81;100.00
26489;BME280;14169;43.684;10.484;2022-11-27T07:25:57;102777.47;;;8.98;100.00
26489;BME280;14169;43.684;10.484;2022-11-27T07:28:23;102773.31;;;9.22;100.00
26489;BME280;14169;43.684;10.484;2022-11-27T07:30:57;102756.16;;;9.53;100.00
26489;BME280;14169;43.684;10.484;2022-11-27T07:33:24;102746.75;;;9.91;100.00
26489;BME280;14169;43.684;10.484;2022-11-27T07:35:57;102738.13;;;10.15;100.00
26489;BME280;14169;43.684;10.484;2022-11-27T07:38:22;102740.78;;;10.41;100.00
26489;BME280;14169;43.684;10.484;2022-11-27T07:40:48;102726.03;;;10.73;100.00
26489;BME280;14169;43.684;10.484;2022-11-27T07:43:13;102716.44;;;11.11;100.00
26489;BME280;14169;43.684;10.484;2022-11-27T07:45:39;102712.84;;;11.47;100.00
26489;BME280;14169;43.684;10.484;2022-11-27T07:48:04;102703.09;;;11.80;100.00
26489;BME280;14169;43.684;10.484;2022-11-27T07:50:30;102702.91;;;12.14;100.00
26489;BME280;14169;43.684;10.484;2022-11-27T07:52:55;102694.91;;;12.39;100.00
26489;BME280;14169;43.684;10.484;2022-11-27T07:55:20;102707.69;;;12.70;100.00
26489;BME280;14169;43.684;10.484;2022-11-27T07:57:46;102710.13;;;12.89;100.00
26489;BME280;14169;43.684;10.484;2022-11-27T08:00:12;102698.66;;;13.02;100.00
26489;BME280;14169;43.684;10.484;2022-11-27T08:02:37;102704.63;;;13.15;100.00
26489;BME280;14169;43.684;10.484;2022-11-27T08:05:03;102705.41;;;13.24;100.00
26489;BME280;14169;43.684;10.484;2022-11-27T08:07:29;102710.66;;;13.24;100.00
26489;BME280;14169;43.684;10.484;2022-11-27T08:09:55;102710.59;;;13.27;100.00
26489;BME280;14169;43.684;10.484;2022-11-27T08:12:22;102709.69;;;13.33;100.00
26489;BME280;14169;43.684;10.484;2022-11-27T08:14:48;102710.31;;;13.53;100.00
26489;BME280;14169;43.684;10.484;2022-11-27T08:17:13;102696.03;;;13.77;100.00
26489;BME280;14169;43.684;10.484;2022-11-27T08:19:40;102695.75;;;13.95;100.00
26489;BME280;14169;43.684;10.484;2022-11-27T08:22:14;102697.25;;;14.12;100.00
26489;BME280;14169;43.684;10.484;2022-11-27T08:24:40;102688.25;;;14.28;100.00
26489;BME280;14169;43.684;10.484;2022-11-27T08:27:07;102694.03;;;14.50;100.00
26489;BME280;14169;43.684;10.484;2022-11-27T08:29:33;102690.41;;;14.57;100.00
26489;BME280;14169;43.684;10.484;2022-11-27T08:31:58;102688.44;;;14.70;100.00
26489;BME280;14169;43.684;10.484;2022-11-27T08:34:24;102688.91;;;14.91;100.00
26489;BME280;14169;43.684;10.484;2022-11-27T08:36:51;102691.91;;;15.17;100.00
26489;BME280;14169;43.684;10.484;2022-11-27T08:39:16;102683.69;;;15.34;100.00
26489;BME280;14169;43.684;10.484;2022-11-27T08:41:42;102685.22;;;15.46;100.00
26489;BME280;14169;43.684;10.484;2022-11-27T08:44:07;102680.56;;;15.60;98.33
26489;BME280;14169;43.684;10.484;2022-11-27T08:46:32;102689.00;;;15.74;98.08
26489;BME280;14169;43.684;10.484;2022-11-27T08:48:58;102682.00;;;15.74;97.59
26489;BME280;14169;43.684;10.484;2022-11-27T08:51:24;102679.41;;;15.71;98.33
26489;BME280;14169;43.684;10.484;2022-11-27T08:53:51;102673.38;;;15.68;99.92
26489;BME280;14169;43.684;10.484;2022-11-27T08:56:19;102677.44;;;15.82;98.59
26489;BME280;14169;43.684;10.484;2022-11-27T08:58:45;102678.00;;;15.95;96.00
26489;BME280;14169;43.684;10.484;2022-11-27T09:01:17;102681.34;;;16.01;95.40
26489;BME280;14169;43.684;10.484;2022-11-27T09:03:43;102688.72;;;15.86;98.70
26489;BME280;14169;43.684;10.484;2022-11-27T09:06:11;102687.91;;;15.84;100.00
26489;BME280;14169;43.684;10.484;2022-11-27T09:08:38;102688.22;;;15.70;100.00
26489;BME280;14169;43.684;10.484;2022-11-27T09:11:04;102689.09;;;15.69;100.00
26489;BME280;14169;43.684;10.484;2022-11-27T09:13:30;102700.66;;;15.62;100.00
26489;BME280;14169;43.684;10.484;2022-11-27T09:15:57;102690.13;;;15.62;100.00
26489;BME280;14169;43.684;10.484;2022-11-27T09:18:22;102700.47;;;15.70;100.00
26489;BME280;14169;43.684;10.484;2022-11-27T09:20:58;102686.38;;;15.74;100.00
26489;BME280;14169;43.684;10.484;2022-11-27T09:23:24;102683.38;;;15.89;100.00
26489;BME280;14169;43.684;10.484;2022-11-27T09:25:52;102687.47;;;16.02;100.00
26489;BME280;14169;43.684;10.484;2022-11-27T09:28:18;102682.72;;;16.18;100.00
26489;BME280;14169;43.684;10.484;2022-11-27T09:30:43;102686.59;;;16.40;99.49
26489;BME280;14169;43.684;10.484;2022-11-27T09:33:09;102685.06;;;16.65;98.12
26489;BME280;14169;43.684;10.484;2022-11-27T09:35:36;102670.69;;;16.78;95.30
26489;BME280;14169;43.684;10.484;2022-11-27T09:38:02;102665.56;;;16.72;93.30
26489;BME280;14169;43.684;10.484;2022-11-27T09:40:28;102666.13;;;16.84;94.10
26489;BME280;14169;43.684;10.484;2022-11-27T09:43:01;102669.75;;;16.80;91.70
26489;BME280;14169;43.684;10.484;2022-11-27T09:45:30;102674.63;;;16.94;94.00
26489;BME280;14169;43.684;10.484;2022-11-27T09:48:03;102670.44;;;17.18;93.40
26489;BME280;14169;43.684;10.484;2022-11-27T09:50:33;102656.84;;;17.33;93.25
26489;BME280;14169;43.684;10.484;2022-11-27T09:53:15;102650.47;;;17.69;93.92
26489;BME280;14169;43.684;10.484;2022-11-27T09:55:46;102657.00;;;17.85;89.53
26489;BME280;14169;43.684;10.484;2022-11-27T09:58:20;102653.28;;;17.92;88.49
26489;BME280;14169;43.684;10.484;2022-11-27T10:00:49;102646.13;;;18.22;85.95
26489;BME280;14169;43.684;10.484;2022-11-27T10:03:23;102651.88;;;18.34;80.73
26489;BME280;14169;43.684;10.484;2022-11-27T10:06:24;102646.44;;;18.39;75.92
26489;BME280;14169;43.684;10.484;2022-11-27T10:09:42;102646.56;;;18.61;74.28
26489;BME280;14169;43.684;10.484;2022-11-27T10:12:21;102643.50;;;18.73;71.97
26489;BME280;14169;43.684;10.484;2022-11-27T10:17:49;102636.72;;;18.66;70.47
26489;BME280;14169;43.684;10.484;2022-11-27T10:20:28;102636.94;;;18.60;69.57
26489;BME280;14169;43.684;10.484;2022-11-27T10:23:04;102636.88;;;18.86;73.16
26489;BME280;14169;43.684;10.484;2022-11-27T10:25:38;102640.78;;;18.99;75.57
26489;BME280;14169;43.684;10.484;2022-11-27T10:28:19;102642.97;;;19.12;78.58
26489;BME280;14169;43.684;10.484;2022-11-27T10:30:59;102635.63;;;19.44;85.68
26489;BME280;14169;43.684;10.484;2022-11-27T10:34:24;102624.88;;;19.48;78.13
26489;BME280;14169;43.684;10.484;2022-11-27T10:36:37;102618.66;;;19.71;78.09
26489;BME280;14169;43.684;10.484;2022-11-27T10:39:06;102614.00;;;19.77;77.43
26489;BME280;14169;43.684;10.484;2022-11-27T10:41:43;102615.75;;;19.77;79.44
26489;BME280;14169;43.684;10.484;2022-11-27T10:44:24;102615.91;;;19.74;71.75
26489;BME280;14169;43.684;10.484;2022-11-27T10:46:54;102607.19;;;19.93;73.73
26489;BME280;14169;43.684;10.484;2022-11-27T10:49:22;102616.16;;;20.11;72.35
26489;BME280;14169;43.684;10.484;2022-11-27T10:51:47;102616.09;;;20.33;65.67
26489;BME280;14169;43.684;10.484;2022-11-27T10:54:26;102611.78;;;20.70;73.42
26489;BME280;14169;43.684;10.484;2022-11-27T10:59:47;102600.63;;;20.44;66.78
26489;BME280;14169;43.684;10.484;2022-11-27T11:02:32;102597.84;;;20.47;65.97
26489;BME280;14169;43.684;10.484;2022-11-27T11:05:09;102589.97;;;20.45;64.43
26489;BME280;14169;43.684;10.484;2022-11-27T11:07:35;102583.00;;;20.23;61.58
26489;BME280;14169;43.684;10.484;2022-11-27T11:10:00;102592.34;;;20.31;60.28
26489;BME280;14169;43.684;10.484;2022-11-27T11:12:26;102582.47;;;20.55;60.16
26489;BME280;14169;43.684;10.484;2022-11-27T11:14:57;102577.56;;;20.66;58.62
26489;BME280;14169;43.684;10.484;2022-11-27T11:17:31;102577.16;;;20.95;57.74
26489;BME280;14169;43.684;10.484;2022-11-27T11:20:22;102572.84;;;21.11;58.33
26489;BME280;14169;43.684;10.484;2022-11-27T11:22:48;102567.91;;;21.22;58.87
26489;BME280;14169;43.684;10.484;2022-11-27T11:25:18;102558.16;;;21.04;55.68
26489;BME280;14169;43.684;10.484;2022-11-27T11:27:45;102562.19;;;21.13;56.14
26489;BME280;14169;43.684;10.484;2022-11-27T11:30:23;102554.31;;;21.11;56.40
26489;BME280;14169;43.684;10.484;2022-11-27T11:32:58;102543.00;;;21.08;56.66
26489;BME280;14169;43.684;10.484;2022-11-27T11:35:31;102548.50;;;21.03;55.21
26489;BME280;14169;43.684;10.484;2022-11-27T11:38:00;102539.56;;;21.06;57.09
26489;BME280;14169;43.684;10.484;2022-11-27T11:40:32;102542.81;;;20.92;56.12
26489;BME280;14169;43.684;10.484;2022-11-27T11:43:04;102538.03;;;21.00;56.24
26489;BME280;14169;43.684;10.484;2022-11-27T11:45:31;102525.97;;;20.74;52.81
26489;BME280;14169;43.684;10.484;2022-11-27T11:50:28;102527.50;;;20.98;56.43
26489;BME280;14169;43.684;10.484;2022-11-27T11:53:36;102529.16;;;21.01;55.66
26489;BME280;14169;43.684;10.484;2022-11-27T12:01:24;102512.78;;;21.29;53.94
26489;BME280;14169;43.684;10.484;2022-11-27T12:06:35;102501.31;;;21.28;52.17
26489;BME280;14169;43.684;10.484;2022-11-27T12:09:30;102492.88;;;21.20;51.22
26489;BME280;14169;43.684;10.484;2022-11-27T12:14:49;102484.69;;;21.08;50.12
26489;BME280;14169;43.684;10.484;2022-11-27T12:28:31;102471.25;;;21.46;47.35
26489;BME280;14169;43.684;10.484;2022-11-27T12:34:01;102477.94;;;21.36;45.46
26489;BME280;14169;43.684;10.484;2022-11-27T12:36:53;102472.25;;;21.27;46.21
26489;BME280;14169;43.684;10.484;2022-11-27T12:39:30;102473.69;;;21.34;45.57
26489;BME280;14169;43.684;10.484;2022-11-27T12:47:21;102443.00;;;21.28;47.06
26489;BME280;14169;43.684;10.484;2022-11-27T12:49:56;102439.03;;;21.37;45.93
26489;BME280;14169;43.684;10.484;2022-11-27T12:52:30;102439.44;;;21.46;48.94
26489;BME280;14169;43.684;10.484;2022-11-27T12:55:17;102434.34;;;21.25;44.92
26489;BME280;14169;43.684;10.484;2022-11-27T12:57:48;102426.97;;;21.48;48.16
26489;BME280;14169;43.684;10.484;2022-11-27T13:00:20;102428.72;;;21.31;47.62
26489;BME280;14169;43.684;10.484;2022-11-27T13:05:31;102427.69;;;21.52;45.53
26489;BME280;14169;43.684;10.484;2022-11-27T13:08:05;102425.34;;;21.63;44.08
26489;BME280;14169;43.684;10.484;2022-11-27T13:10:39;102435.63;;;21.86;45.15
26489;BME280;14169;43.684;10.484;2022-11-27T13:13:22;102429.56;;;21.67;45.76
26489;BME280;14169;43.684;10.484;2022-11-27T13:15:56;102425.03;;;21.69;44.29
26489;BME280;14169;43.684;10.484;2022-11-27T13:18:45;102421.22;;;21.57;44.62
26489;BME280;14169;43.684;10.484;2022-11-27T13:21:18;102422.72;;;21.63;45.91
26489;BME280;14169;43.684;10.484;2022-11-27T13:23:47;102425.34;;;21.63;43.52
26489;BME280;14169;43.684;10.484;2022-11-27T13:26:17;102419.81;;;21.67;45.79
26489;BME280;14169;43.684;10.484;2022-11-27T13:28:46;102426.66;;;21.54;42.93
26489;BME280;14169;43.684;10.484;2022-11-27T13:31:19;102410.84;;;21.53;42.99
26489;BME280;14169;43.684;10.484;2022-11-27T13:33:46;102405.78;;;21.65;43.45
26489;BME280;14169;43.684;10.484;2022-11-27T13:36:19;102401.00;;;21.72;43.27
26489;BME280;14169;43.684;10.484;2022-11-27T13:38:51;102400.44;;;21.82;43.28
26489;BME280;14169;43.684;10.484;2022-11-27T13:41:30;102402.03;;;22.02;44.28
26489;BME280;14169;43.684;10.484;2022-11-27T13:43:56;102397.94;;;21.97;41.89
26489;BME280;14169;43.684;10.484;2022-11-27T13:46:43;102400.53;;;22.14;42.04
26489;BME280;14169;43.684;10.484;2022-11-27T13:49:22;102398.63;;;22.33;40.14